Terminal Aerodrome Forecast
Issued by NWS Upton, NY

Current Version | Previous Version | Text Only | Print | Product List | Glossary On
Versions: 1 2 3 4 5 6 7 8 9 10 11 12 13 14 15 16 17 18 19 20 21 22 23 24 25 26 27
000
FTUS41 KOKX 021400 AAA
TAFEWR
TAF AMD
KEWR 021433Z 0215/0318 02010KT P6SM OVC019
     FM021700 02011KT P6SM BKN025
     FM021900 03009KT P6SM BKN035
     FM022100 03008KT P6SM FEW035 BKN080
     FM030000 03006KT P6SM SCT030 SCT080=

USA.gov is the U.S. government's official web portal to all federal, state and local government web resources and services.